sensor_id;sensor_type;location;lat;lon;timestamp;P1;durP1;ratioP1;P2;durP2;ratioP2
12585;SDS011;6358;50.760;0.282;2022-12-29T00:01:17;4.23;;;1.80;;
12585;SDS011;6358;50.760;0.282;2022-12-29T00:03:46;4.50;;;2.00;;
12585;SDS011;6358;50.760;0.282;2022-12-29T00:06:12;2.93;;;1.73;;
12585;SDS011;6358;50.760;0.282;2022-12-29T00:08:38;5.47;;;1.90;;
12585;SDS011;6358;50.760;0.282;2022-12-29T00:11:27;3.87;;;1.70;;
12585;SDS011;6358;50.760;0.282;2022-12-29T00:13:51;4.00;;;1.70;;
12585;SDS011;6358;50.760;0.282;2022-12-29T00:16:37;6.47;;;2.27;;
12585;SDS011;6358;50.760;0.282;2022-12-29T00:19:03;5.67;;;2.03;;
12585;SDS011;6358;50.760;0.282;2022-12-29T00:21:30;3.80;;;1.90;;
12585;SDS011;6358;50.760;0.282;2022-12-29T00:24:19;4.07;;;1.83;;
12585;SDS011;6358;50.760;0.282;2022-12-29T00:29:48;3.97;;;1.83;;
12585;SDS011;6358;50.760;0.282;2022-12-29T00:32:33;3.83;;;1.90;;
12585;SDS011;6358;50.760;0.282;2022-12-29T00:35:22;4.33;;;1.93;;
12585;SDS011;6358;50.760;0.282;2022-12-29T00:37:48;4.73;;;2.20;;
12585;SDS011;6358;50.760;0.282;2022-12-29T00:40:33;3.43;;;1.83;;
12585;SDS011;6358;50.760;0.282;2022-12-29T00:43:18;3.80;;;1.63;;
12585;SDS011;6358;50.760;0.282;2022-12-29T00:46:03;5.40;;;2.10;;
12585;SDS011;6358;50.760;0.282;2022-12-29T00:48:29;5.53;;;1.93;;
12585;SDS011;6358;50.760;0.282;2022-12-29T00:51:14;3.93;;;2.07;;
12585;SDS011;6358;50.760;0.282;2022-12-29T00:53:40;5.03;;;2.03;;
12585;SDS011;6358;50.760;0.282;2022-12-29T00:56:06;4.60;;;1.90;;
12585;SDS011;6358;50.760;0.282;2022-12-29T00:58:32;5.27;;;1.90;;
12585;SDS011;6358;50.760;0.282;2022-12-29T01:01:05;5.77;;;2.30;;
12585;SDS011;6358;50.760;0.282;2022-12-29T01:03:32;4.23;;;2.00;;
12585;SDS011;6358;50.760;0.282;2022-12-29T01:06:02;5.47;;;2.27;;
12585;SDS011;6358;50.760;0.282;2022-12-29T01:08:29;5.10;;;2.20;;
12585;SDS011;6358;50.760;0.282;2022-12-29T01:11:02;5.83;;;2.33;;
12585;SDS011;6358;50.760;0.282;2022-12-29T01:13:28;5.40;;;2.13;;
12585;SDS011;6358;50.760;0.282;2022-12-29T01:15:54;5.03;;;2.23;;
12585;SDS011;6358;50.760;0.282;2022-12-29T01:18:21;5.50;;;2.37;;
12585;SDS011;6358;50.760;0.282;2022-12-29T01:20:47;5.50;;;2.37;;
12585;SDS011;6358;50.760;0.282;2022-12-29T01:23:14;5.30;;;2.20;;
12585;SDS011;6358;50.760;0.282;2022-12-29T01:25:40;4.83;;;2.10;;
12585;SDS011;6358;50.760;0.282;2022-12-29T01:28:06;6.03;;;2.13;;
12585;SDS011;6358;50.760;0.282;2022-12-29T01:30:36;4.70;;;2.00;;
12585;SDS011;6358;50.760;0.282;2022-12-29T01:33:02;5.70;;;2.27;;
12585;SDS011;6358;50.760;0.282;2022-12-29T01:35:28;4.47;;;2.00;;
12585;SDS011;6358;50.760;0.282;2022-12-29T01:37:54;5.40;;;2.17;;
12585;SDS011;6358;50.760;0.282;2022-12-29T01:40:20;3.83;;;2.03;;
12585;SDS011;6358;50.760;0.282;2022-12-29T01:42:46;4.90;;;2.30;;
12585;SDS011;6358;50.760;0.282;2022-12-29T01:45:13;4.07;;;2.10;;
12585;SDS011;6358;50.760;0.282;2022-12-29T01:47:43;5.30;;;2.23;;
12585;SDS011;6358;50.760;0.282;2022-12-29T01:52:37;5.23;;;2.10;;
12585;SDS011;6358;50.760;0.282;2022-12-29T01:55:05;5.03;;;2.00;;
12585;SDS011;6358;50.760;0.282;2022-12-29T01:57:33;7.23;;;2.40;;
12585;SDS011;6358;50.760;0.282;2022-12-29T02:00:04;5.50;;;2.10;;
12585;SDS011;6358;50.760;0.282;2022-12-29T02:02:32;3.40;;;1.80;;
12585;SDS011;6358;50.760;0.282;2022-12-29T02:04:58;4.03;;;1.97;;
12585;SDS011;6358;50.760;0.282;2022-12-29T02:07:27;7.37;;;2.63;;
12585;SDS011;6358;50.760;0.282;2022-12-29T02:09:53;6.00;;;2.13;;
12585;SDS011;6358;50.760;0.282;2022-12-29T02:12:20;4.47;;;2.00;;
12585;SDS011;6358;50.760;0.282;2022-12-29T02:14:47;4.73;;;2.20;;
12585;SDS011;6358;50.760;0.282;2022-12-29T02:22:13;3.70;;;2.03;;
12585;SDS011;6358;50.760;0.282;2022-12-29T02:32:32;3.73;;;2.00;;
12585;SDS011;6358;50.760;0.282;2022-12-29T02:37:51;4.60;;;1.90;;
12585;SDS011;6358;50.760;0.282;2022-12-29T02:40:26;5.13;;;2.37;;
12585;SDS011;6358;50.760;0.282;2022-12-29T02:45:30;5.97;;;2.30;;
12585;SDS011;6358;50.760;0.282;2022-12-29T02:48:07;3.97;;;1.70;;
12585;SDS011;6358;50.760;0.282;2022-12-29T02:50:39;5.50;;;2.10;;
12585;SDS011;6358;50.760;0.282;2022-12-29T02:53:07;4.03;;;2.03;;
12585;SDS011;6358;50.760;0.282;2022-12-29T02:55:35;5.63;;;2.33;;
12585;SDS011;6358;50.760;0.282;2022-12-29T03:00:40;5.07;;;2.07;;
12585;SDS011;6358;50.760;0.282;2022-12-29T03:03:16;5.33;;;2.00;;
12585;SDS011;6358;50.760;0.282;2022-12-29T03:08:34;3.70;;;1.70;;
12585;SDS011;6358;50.760;0.282;2022-12-29T03:11:02;5.77;;;2.10;;
12585;SDS011;6358;50.760;0.282;2022-12-29T03:13:32;4.83;;;2.00;;
12585;SDS011;6358;50.760;0.282;2022-12-29T03:16:20;5.00;;;2.10;;
12585;SDS011;6358;50.760;0.282;2022-12-29T03:18:50;5.10;;;2.23;;
12585;SDS011;6358;50.760;0.282;2022-12-29T03:21:20;5.87;;;2.20;;
12585;SDS011;6358;50.760;0.282;2022-12-29T03:24:08;6.33;;;2.40;;
12585;SDS011;6358;50.760;0.282;2022-12-29T03:26:35;5.83;;;2.13;;
12585;SDS011;6358;50.760;0.282;2022-12-29T03:29:02;5.20;;;1.90;;
12585;SDS011;6358;50.760;0.282;2022-12-29T03:31:28;2.80;;;2.00;;
12585;SDS011;6358;50.760;0.282;2022-12-29T03:33:55;4.57;;;2.10;;
12585;SDS011;6358;50.760;0.282;2022-12-29T03:36:29;4.13;;;1.93;;
12585;SDS011;6358;50.760;0.282;2022-12-29T03:39:01;5.60;;;2.10;;
12585;SDS011;6358;50.760;0.282;2022-12-29T03:41:30;5.63;;;2.00;;
12585;SDS011;6358;50.760;0.282;2022-12-29T03:43:56;4.33;;;2.10;;
12585;SDS011;6358;50.760;0.282;2022-12-29T03:46:23;5.57;;;2.07;;
12585;SDS011;6358;50.760;0.282;2022-12-29T03:48:49;3.77;;;2.00;;
12585;SDS011;6358;50.760;0.282;2022-12-29T03:51:15;5.80;;;2.17;;
12585;SDS011;6358;50.760;0.282;2022-12-29T03:53:41;5.97;;;2.10;;
12585;SDS011;6358;50.760;0.282;2022-12-29T03:56:07;5.63;;;2.07;;
12585;SDS011;6358;50.760;0.282;2022-12-29T03:58:34;5.10;;;2.33;;
12585;SDS011;6358;50.760;0.282;2022-12-29T04:01:00;4.23;;;1.97;;
12585;SDS011;6358;50.760;0.282;2022-12-29T04:03:26;6.30;;;2.40;;
12585;SDS011;6358;50.760;0.282;2022-12-29T04:05:52;5.70;;;2.57;;
12585;SDS011;6358;50.760;0.282;2022-12-29T04:08:18;4.40;;;2.20;;
12585;SDS011;6358;50.760;0.282;2022-12-29T04:10:44;6.33;;;2.37;;
12585;SDS011;6358;50.760;0.282;2022-12-29T04:13:10;4.13;;;1.90;;
12585;SDS011;6358;50.760;0.282;2022-12-29T04:15:36;5.03;;;2.20;;
12585;SDS011;6358;50.760;0.282;2022-12-29T04:18:02;6.63;;;2.43;;
12585;SDS011;6358;50.760;0.282;2022-12-29T04:20:28;6.97;;;2.80;;
12585;SDS011;6358;50.760;0.282;2022-12-29T04:23:13;6.23;;;2.40;;
12585;SDS011;6358;50.760;0.282;2022-12-29T04:25:39;5.00;;;2.07;;
12585;SDS011;6358;50.760;0.282;2022-12-29T04:28:05;7.10;;;2.67;;
12585;SDS011;6358;50.760;0.282;2022-12-29T04:30:32;6.03;;;2.37;;
12585;SDS011;6358;50.760;0.282;2022-12-29T04:32:59;6.33;;;2.60;;
12585;SDS011;6358;50.760;0.282;2022-12-29T04:35:25;6.27;;;2.43;;
12585;SDS011;6358;50.760;0.282;2022-12-29T04:37:51;5.80;;;2.60;;
12585;SDS011;6358;50.760;0.282;2022-12-29T04:40:17;7.97;;;2.77;;
12585;SDS011;6358;50.760;0.282;2022-12-29T04:42:43;5.77;;;2.27;;
12585;SDS011;6358;50.760;0.282;2022-12-29T04:45:09;4.97;;;2.27;;
12585;SDS011;6358;50.760;0.282;2022-12-29T04:47:35;8.33;;;2.40;;
12585;SDS011;6358;50.760;0.282;2022-12-29T04:50:01;5.53;;;2.60;;
12585;SDS011;6358;50.760;0.282;2022-12-29T04:52:27;7.47;;;2.80;;
12585;SDS011;6358;50.760;0.282;2022-12-29T04:54:54;6.97;;;2.90;;
12585;SDS011;6358;50.760;0.282;2022-12-29T04:57:20;5.43;;;2.60;;
12585;SDS011;6358;50.760;0.282;2022-12-29T04:59:46;5.83;;;2.67;;
12585;SDS011;6358;50.760;0.282;2022-12-29T05:02:12;5.20;;;2.47;;
12585;SDS011;6358;50.760;0.282;2022-12-29T05:04:38;7.43;;;2.70;;
12585;SDS011;6358;50.760;0.282;2022-12-29T05:07:04;5.63;;;2.40;;
12585;SDS011;6358;50.760;0.282;2022-12-29T05:09:30;6.60;;;2.70;;
12585;SDS011;6358;50.760;0.282;2022-12-29T05:11:56;7.67;;;2.87;;
12585;SDS011;6358;50.760;0.282;2022-12-29T05:14:22;6.30;;;2.67;;
12585;SDS011;6358;50.760;0.282;2022-12-29T05:16:48;7.43;;;2.67;;
12585;SDS011;6358;50.760;0.282;2022-12-29T05:19:14;4.77;;;2.53;;
12585;SDS011;6358;50.760;0.282;2022-12-29T05:21:41;6.30;;;2.27;;
12585;SDS011;6358;50.760;0.282;2022-12-29T05:24:08;5.47;;;2.53;;
12585;SDS011;6358;50.760;0.282;2022-12-29T05:26:34;5.63;;;2.50;;
12585;SDS011;6358;50.760;0.282;2022-12-29T05:29:00;6.23;;;2.30;;
12585;SDS011;6358;50.760;0.282;2022-12-29T05:31:26;8.43;;;3.20;;
12585;SDS011;6358;50.760;0.282;2022-12-29T05:33:52;5.97;;;2.60;;
12585;SDS011;6358;50.760;0.282;2022-12-29T05:36:19;6.23;;;2.57;;
12585;SDS011;6358;50.760;0.282;2022-12-29T05:38:45;8.37;;;3.03;;
12585;SDS011;6358;50.760;0.282;2022-12-29T05:41:11;5.90;;;2.73;;
12585;SDS011;6358;50.760;0.282;2022-12-29T05:43:37;7.63;;;2.63;;
12585;SDS011;6358;50.760;0.282;2022-12-29T05:46:03;7.20;;;2.70;;
12585;SDS011;6358;50.760;0.282;2022-12-29T05:48:29;7.73;;;3.40;;
12585;SDS011;6358;50.760;0.282;2022-12-29T05:50:55;8.10;;;3.00;;
12585;SDS011;6358;50.760;0.282;2022-12-29T05:53:22;5.37;;;2.27;;
12585;SDS011;6358;50.760;0.282;2022-12-29T05:55:48;8.60;;;3.00;;
12585;SDS011;6358;50.760;0.282;2022-12-29T05:58:15;7.80;;;2.97;;
12585;SDS011;6358;50.760;0.282;2022-12-29T06:00:41;6.83;;;2.70;;
12585;SDS011;6358;50.760;0.282;2022-12-29T06:03:07;6.13;;;2.93;;
12585;SDS011;6358;50.760;0.282;2022-12-29T06:05:34;5.23;;;2.63;;
12585;SDS011;6358;50.760;0.282;2022-12-29T06:08:00;7.40;;;2.97;;
12585;SDS011;6358;50.760;0.282;2022-12-29T06:10:26;6.83;;;2.47;;
12585;SDS011;6358;50.760;0.282;2022-12-29T06:12:52;6.40;;;2.43;;
12585;SDS011;6358;50.760;0.282;2022-12-29T06:15:18;6.67;;;2.57;;
12585;SDS011;6358;50.760;0.282;2022-12-29T06:17:44;5.40;;;2.70;;
12585;SDS011;6358;50.760;0.282;2022-12-29T06:20:11;5.93;;;2.37;;
12585;SDS011;6358;50.760;0.282;2022-12-29T06:22:37;8.07;;;3.07;;
12585;SDS011;6358;50.760;0.282;2022-12-29T06:25:03;5.57;;;2.67;;
12585;SDS011;6358;50.760;0.282;2022-12-29T06:27:30;7.53;;;2.60;;
12585;SDS011;6358;50.760;0.282;2022-12-29T06:29:56;5.63;;;2.80;;
12585;SDS011;6358;50.760;0.282;2022-12-29T06:32:22;6.10;;;2.67;;
12585;SDS011;6358;50.760;0.282;2022-12-29T06:34:48;7.40;;;2.90;;
12585;SDS011;6358;50.760;0.282;2022-12-29T06:37:15;5.40;;;2.40;;
12585;SDS011;6358;50.760;0.282;2022-12-29T06:39:41;7.77;;;2.87;;
12585;SDS011;6358;50.760;0.282;2022-12-29T06:42:08;6.10;;;2.37;;
12585;SDS011;6358;50.760;0.282;2022-12-29T06:44:35;7.00;;;2.70;;
12585;SDS011;6358;50.760;0.282;2022-12-29T06:47:01;6.83;;;2.43;;
12585;SDS011;6358;50.760;0.282;2022-12-29T06:49:27;5.80;;;2.70;;
12585;SDS011;6358;50.760;0.282;2022-12-29T06:51:53;6.90;;;2.70;;
12585;SDS011;6358;50.760;0.282;2022-12-29T06:54:19;5.90;;;2.80;;
12585;SDS011;6358;50.760;0.282;2022-12-29T06:56:45;7.43;;;2.90;;
12585;SDS011;6358;50.760;0.282;2022-12-29T06:59:11;7.13;;;2.70;;
12585;SDS011;6358;50.760;0.282;2022-12-29T07:01:37;5.40;;;2.90;;
12585;SDS011;6358;50.760;0.282;2022-12-29T07:04:03;5.47;;;2.37;;
12585;SDS011;6358;50.760;0.282;2022-12-29T07:06:29;5.83;;;2.73;;
12585;SDS011;6358;50.760;0.282;2022-12-29T07:08:55;7.57;;;2.80;;
12585;SDS011;6358;50.760;0.282;2022-12-29T07:11:22;7.80;;;3.00;;
12585;SDS011;6358;50.760;0.282;2022-12-29T07:13:48;7.30;;;2.77;;
12585;SDS011;6358;50.760;0.282;2022-12-29T07:16:14;7.53;;;2.50;;
12585;SDS011;6358;50.760;0.282;2022-12-29T07:18:41;4.67;;;2.30;;
12585;SDS011;6358;50.760;0.282;2022-12-29T07:21:07;5.80;;;2.70;;
12585;SDS011;6358;50.760;0.282;2022-12-29T07:23:33;8.10;;;2.70;;
12585;SDS011;6358;50.760;0.282;2022-12-29T07:26:04;6.40;;;2.60;;
12585;SDS011;6358;50.760;0.282;2022-12-29T07:28:30;5.90;;;2.67;;
12585;SDS011;6358;50.760;0.282;2022-12-29T07:30:57;5.63;;;2.17;;
12585;SDS011;6358;50.760;0.282;2022-12-29T07:33:23;5.67;;;2.30;;
12585;SDS011;6358;50.760;0.282;2022-12-29T07:35:49;8.33;;;2.80;;
12585;SDS011;6358;50.760;0.282;2022-12-29T07:38:15;3.97;;;2.20;;
12585;SDS011;6358;50.760;0.282;2022-12-29T07:40:42;5.53;;;2.27;;
12585;SDS011;6358;50.760;0.282;2022-12-29T07:43:08;4.73;;;2.10;;
12585;SDS011;6358;50.760;0.282;2022-12-29T07:45:34;5.10;;;2.57;;
12585;SDS011;6358;50.760;0.282;2022-12-29T07:48:00;5.53;;;2.37;;
12585;SDS011;6358;50.760;0.282;2022-12-29T07:50:27;4.10;;;2.07;;
12585;SDS011;6358;50.760;0.282;2022-12-29T07:52:53;5.60;;;2.30;;
12585;SDS011;6358;50.760;0.282;2022-12-29T07:55:19;5.50;;;2.47;;
12585;SDS011;6358;50.760;0.282;2022-12-29T07:57:46;5.13;;;2.17;;
12585;SDS011;6358;50.760;0.282;2022-12-29T08:00:12;4.53;;;2.20;;
12585;SDS011;6358;50.760;0.282;2022-12-29T08:02:38;4.10;;;2.00;;
12585;SDS011;6358;50.760;0.282;2022-12-29T08:05:04;4.87;;;2.40;;
12585;SDS011;6358;50.760;0.282;2022-12-29T08:07:31;3.07;;;1.77;;
12585;SDS011;6358;50.760;0.282;2022-12-29T08:09:57;3.53;;;1.93;;
12585;SDS011;6358;50.760;0.282;2022-12-29T08:12:23;4.00;;;2.17;;
12585;SDS011;6358;50.760;0.282;2022-12-29T08:14:49;4.30;;;2.00;;
12585;SDS011;6358;50.760;0.282;2022-12-29T08:17:15;3.13;;;1.87;;
12585;SDS011;6358;50.760;0.282;2022-12-29T08:19:41;4.90;;;1.93;;
12585;SDS011;6358;50.760;0.282;2022-12-29T08:22:07;4.77;;;2.23;;
12585;SDS011;6358;50.760;0.282;2022-12-29T08:24:34;4.93;;;2.00;;
12585;SDS011;6358;50.760;0.282;2022-12-29T08:27:00;4.80;;;1.80;;
12585;SDS011;6358;50.760;0.282;2022-12-29T08:29:27;4.57;;;1.90;;
12585;SDS011;6358;50.760;0.282;2022-12-29T08:31:53;4.70;;;2.20;;
12585;SDS011;6358;50.760;0.282;2022-12-29T08:34:19;3.57;;;1.90;;
12585;SDS011;6358;50.760;0.282;2022-12-29T08:36:45;3.73;;;1.80;;
12585;SDS011;6358;50.760;0.282;2022-12-29T08:39:11;6.73;;;2.30;;
12585;SDS011;6358;50.760;0.282;2022-12-29T08:41:37;6.00;;;1.83;;
12585;SDS011;6358;50.760;0.282;2022-12-29T08:44:03;5.17;;;1.90;;
12585;SDS011;6358;50.760;0.282;2022-12-29T08:46:29;2.70;;;1.60;;
12585;SDS011;6358;50.760;0.282;2022-12-29T08:48:55;4.30;;;1.60;;
12585;SDS011;6358;50.760;0.282;2022-12-29T08:51:21;8.07;;;2.27;;
12585;SDS011;6358;50.760;0.282;2022-12-29T08:53:48;6.83;;;2.00;;
12585;SDS011;6358;50.760;0.282;2022-12-29T08:56:14;7.47;;;2.03;;
12585;SDS011;6358;50.760;0.282;2022-12-29T08:58:40;5.20;;;1.90;;
12585;SDS011;6358;50.760;0.282;2022-12-29T09:01:06;4.07;;;1.87;;
12585;SDS011;6358;50.760;0.282;2022-12-29T09:03:32;9.60;;;2.27;;
12585;SDS011;6358;50.760;0.282;2022-12-29T09:05:58;6.60;;;2.03;;
12585;SDS011;6358;50.760;0.282;2022-12-29T09:08:24;4.43;;;2.13;;
12585;SDS011;6358;50.760;0.282;2022-12-29T09:10:52;4.80;;;1.80;;
12585;SDS011;6358;50.760;0.282;2022-12-29T09:13:18;6.57;;;1.90;;
12585;SDS011;6358;50.760;0.282;2022-12-29T09:15:44;6.23;;;1.97;;
12585;SDS011;6358;50.760;0.282;2022-12-29T09:18:11;13.57;;;2.67;;
12585;SDS011;6358;50.760;0.282;2022-12-29T09:20:37;6.77;;;2.33;;
12585;SDS011;6358;50.760;0.282;2022-12-29T09:23:03;6.17;;;2.30;;
12585;SDS011;6358;50.760;0.282;2022-12-29T09:25:31;6.17;;;2.10;;
12585;SDS011;6358;50.760;0.282;2022-12-29T09:27:57;4.63;;;2.10;;
12585;SDS011;6358;50.760;0.282;2022-12-29T09:30:24;5.17;;;2.03;;
12585;SDS011;6358;50.760;0.282;2022-12-29T09:32:50;5.87;;;2.13;;
12585;SDS011;6358;50.760;0.282;2022-12-29T09:35:16;5.97;;;1.90;;
12585;SDS011;6358;50.760;0.282;2022-12-29T09:37:42;5.23;;;1.93;;
12585;SDS011;6358;50.760;0.282;2022-12-29T09:40:22;3.20;;;1.83;;
12585;SDS011;6358;50.760;0.282;2022-12-29T09:43:11;4.90;;;1.73;;
12585;SDS011;6358;50.760;0.282;2022-12-29T09:48:05;5.33;;;2.00;;
12585;SDS011;6358;50.760;0.282;2022-12-29T09:50:35;4.43;;;2.03;;
12585;SDS011;6358;50.760;0.282;2022-12-29T09:53:17;5.47;;;1.90;;
12585;SDS011;6358;50.760;0.282;2022-12-29T09:55:50;6.30;;;2.17;;
12585;SDS011;6358;50.760;0.282;2022-12-29T10:00:58;3.40;;;1.60;;
12585;SDS011;6358;50.760;0.282;2022-12-29T10:03:36;4.83;;;1.87;;
12585;SDS011;6358;50.760;0.282;2022-12-29T10:06:09;3.10;;;1.90;;
12585;SDS011;6358;50.760;0.282;2022-12-29T10:08:38;4.07;;;1.90;;
12585;SDS011;6358;50.760;0.282;2022-12-29T10:11:13;2.93;;;1.70;;
12585;SDS011;6358;50.760;0.282;2022-12-29T10:16:35;4.00;;;1.67;;
12585;SDS011;6358;50.760;0.282;2022-12-29T10:24:12;3.97;;;1.83;;
12585;SDS011;6358;50.760;0.282;2022-12-29T10:26:39;4.37;;;2.00;;
12585;SDS011;6358;50.760;0.282;2022-12-29T10:29:11;3.87;;;1.70;;
12585;SDS011;6358;50.760;0.282;2022-12-29T10:31:50;4.93;;;2.00;;
12585;SDS011;6358;50.760;0.282;2022-12-29T10:34:22;3.80;;;1.73;;
12585;SDS011;6358;50.760;0.282;2022-12-29T10:37:00;3.67;;;1.63;;
12585;SDS011;6358;50.760;0.282;2022-12-29T10:39:40;2.37;;;1.50;;
12585;SDS011;6358;50.760;0.282;2022-12-29T10:44:44;3.53;;;1.40;;
12585;SDS011;6358;50.760;0.282;2022-12-29T10:47:12;3.13;;;1.57;;
12585;SDS011;6358;50.760;0.282;2022-12-29T10:49:40;2.17;;;1.10;;
12585;SDS011;6358;50.760;0.282;2022-12-29T10:52:07;3.30;;;1.63;;
12585;SDS011;6358;50.760;0.282;2022-12-29T10:57:05;2.77;;;1.40;;
12585;SDS011;6358;50.760;0.282;2022-12-29T10:59:33;3.77;;;1.67;;
12585;SDS011;6358;50.760;0.282;2022-12-29T11:07:40;3.90;;;1.63;;
12585;SDS011;6358;50.760;0.282;2022-12-29T11:10:17;3.63;;;1.70;;
12585;SDS011;6358;50.760;0.282;2022-12-29T11:12:57;2.93;;;1.50;;
12585;SDS011;6358;50.760;0.282;2022-12-29T11:15:23;2.97;;;1.50;;
12585;SDS011;6358;50.760;0.282;2022-12-29T11:17:51;2.57;;;1.33;;
12585;SDS011;6358;50.760;0.282;2022-12-29T11:20:28;4.10;;;1.60;;
12585;SDS011;6358;50.760;0.282;2022-12-29T11:22:54;5.57;;;1.70;;
12585;SDS011;6358;50.760;0.282;2022-12-29T11:25:20;6.57;;;1.83;;
12585;SDS011;6358;50.760;0.282;2022-12-29T11:27:56;6.90;;;1.70;;
12585;SDS011;6358;50.760;0.282;2022-12-29T11:30:32;6.50;;;2.07;;
12585;SDS011;6358;50.760;0.282;2022-12-29T11:32:58;3.97;;;1.87;;
12585;SDS011;6358;50.760;0.282;2022-12-29T11:35:43;4.70;;;2.00;;
12585;SDS011;6358;50.760;0.282;2022-12-29T11:38:18;8.50;;;1.90;;
12585;SDS011;6358;50.760;0.282;2022-12-29T11:40:45;6.67;;;1.87;;
12585;SDS011;6358;50.760;0.282;2022-12-29T11:43:23;6.37;;;1.60;;
12585;SDS011;6358;50.760;0.282;2022-12-29T11:45:52;3.60;;;2.03;;
12585;SDS011;6358;50.760;0.282;2022-12-29T11:48:19;10.97;;;2.50;;
12585;SDS011;6358;50.760;0.282;2022-12-29T11:50:53;3.87;;;1.67;;
12585;SDS011;6358;50.760;0.282;2022-12-29T11:58:17;3.47;;;1.53;;
12585;SDS011;6358;50.760;0.282;2022-12-29T12:00:43;5.37;;;2.00;;
12585;SDS011;6358;50.760;0.282;2022-12-29T12:03:18;3.03;;;1.53;;
12585;SDS011;6358;50.760;0.282;2022-12-29T12:05:58;5.90;;;2.10;;
12585;SDS011;6358;50.760;0.282;2022-12-29T12:08:37;2.67;;;1.30;;
12585;SDS011;6358;50.760;0.282;2022-12-29T12:11:10;2.77;;;1.60;;
12585;SDS011;6358;50.760;0.282;2022-12-29T12:14:27;3.57;;;1.83;;
12585;SDS011;6358;50.760;0.282;2022-12-29T12:16:24;4.20;;;1.47;;
12585;SDS011;6358;50.760;0.282;2022-12-29T12:18:57;5.60;;;1.90;;
12585;SDS011;6358;50.760;0.282;2022-12-29T12:26:36;4.20;;;1.93;;
12585;SDS011;6358;50.760;0.282;2022-12-29T12:29:08;3.97;;;1.60;;
12585;SDS011;6358;50.760;0.282;2022-12-29T12:34:02;3.37;;;1.90;;
12585;SDS011;6358;50.760;0.282;2022-12-29T12:39:12;4.03;;;1.83;;
12585;SDS011;6358;50.760;0.282;2022-12-29T12:41:48;3.37;;;1.70;;
12585;SDS011;6358;50.760;0.282;2022-12-29T12:44:29;4.97;;;1.67;;
12585;SDS011;6358;50.760;0.282;2022-12-29T12:52:01;5.17;;;2.10;;
12585;SDS011;6358;50.760;0.282;2022-12-29T13:02:28;3.93;;;1.80;;
12585;SDS011;6358;50.760;0.282;2022-12-29T13:18:14;3.73;;;2.03;;
12585;SDS011;6358;50.760;0.282;2022-12-29T13:23:12;3.70;;;1.80;;
12585;SDS011;6358;50.760;0.282;2022-12-29T13:28:15;3.63;;;1.53;;
12585;SDS011;6358;50.760;0.282;2022-12-29T13:33:29;5.50;;;1.53;;
12585;SDS011;6358;50.760;0.282;2022-12-29T13:38:45;5.13;;;1.80;;
12585;SDS011;6358;50.760;0.282;2022-12-29T13:41:34;3.53;;;1.97;;
12585;SDS011;6358;50.760;0.282;2022-12-29T13:43:58;5.00;;;1.67;;
12585;SDS011;6358;50.760;0.282;2022-12-29T13:46:31;4.33;;;1.70;;
12585;SDS011;6358;50.760;0.282;2022-12-29T13:49:04;4.23;;;1.77;;
12585;SDS011;6358;50.760;0.282;2022-12-29T13:51:32;3.73;;;1.70;;
12585;SDS011;6358;50.760;0.282;2022-12-29T13:54:10;4.20;;;1.80;;
12585;SDS011;6358;50.760;0.282;2022-12-29T13:59:38;6.73;;;1.67;;
12585;SDS011;6358;50.760;0.282;2022-12-29T14:04:58;4.90;;;1.67;;
12585;SDS011;6358;50.760;0.282;2022-12-29T14:07:25;4.07;;;1.73;;
12585;SDS011;6358;50.760;0.282;2022-12-29T14:09:52;3.77;;;1.63;;
12585;SDS011;6358;50.760;0.282;2022-12-29T14:12:19;5.67;;;2.17;;
12585;SDS011;6358;50.760;0.282;2022-12-29T14:14:46;3.97;;;1.80;;
12585;SDS011;6358;50.760;0.282;2022-12-29T14:17:12;4.77;;;1.87;;
12585;SDS011;6358;50.760;0.282;2022-12-29T14:19:39;3.60;;;1.83;;
12585;SDS011;6358;50.760;0.282;2022-12-29T14:22:06;3.37;;;1.63;;
12585;SDS011;6358;50.760;0.282;2022-12-29T14:31:57;4.13;;;1.70;;
12585;SDS011;6358;50.760;0.282;2022-12-29T14:36:59;4.07;;;1.87;;
12585;SDS011;6358;50.760;0.282;2022-12-29T14:44:30;3.73;;;1.73;;
12585;SDS011;6358;50.760;0.282;2022-12-29T14:49:26;4.40;;;1.97;;
12585;SDS011;6358;50.760;0.282;2022-12-29T14:51:53;3.93;;;1.70;;
12585;SDS011;6358;50.760;0.282;2022-12-29T14:54:42;3.73;;;1.80;;
12585;SDS011;6358;50.760;0.282;2022-12-29T14:57:08;4.57;;;1.87;;
12585;SDS011;6358;50.760;0.282;2022-12-29T14:59:36;3.80;;;1.90;;
12585;SDS011;6358;50.760;0.282;2022-12-29T15:02:04;3.73;;;1.70;;
12585;SDS011;6358;50.760;0.282;2022-12-29T15:04:31;8.00;;;1.90;;
12585;SDS011;6358;50.760;0.282;2022-12-29T15:06:58;4.50;;;1.57;;
12585;SDS011;6358;50.760;0.282;2022-12-29T15:09:27;4.77;;;1.73;;
12585;SDS011;6358;50.760;0.282;2022-12-29T15:11:59;4.60;;;1.77;;
12585;SDS011;6358;50.760;0.282;2022-12-29T15:16:56;3.43;;;1.80;;
12585;SDS011;6358;50.760;0.282;2022-12-29T15:19:23;5.07;;;1.73;;
12585;SDS011;6358;50.760;0.282;2022-12-29T15:21:49;5.17;;;1.70;;
12585;SDS011;6358;50.760;0.282;2022-12-29T15:24:15;3.70;;;1.87;;
12585;SDS011;6358;50.760;0.282;2022-12-29T15:26:42;5.30;;;2.00;;
12585;SDS011;6358;50.760;0.282;2022-12-29T15:31:56;4.73;;;2.00;;
12585;SDS011;6358;50.760;0.282;2022-12-29T15:34:22;4.47;;;2.00;;
12585;SDS011;6358;50.760;0.282;2022-12-29T15:36:49;4.73;;;2.07;;
12585;SDS011;6358;50.760;0.282;2022-12-29T15:39:19;7.43;;;2.17;;
12585;SDS011;6358;50.760;0.282;2022-12-29T15:47:06;3.70;;;1.93;;
12585;SDS011;6358;50.760;0.282;2022-12-29T15:49:32;6.17;;;1.97;;
12585;SDS011;6358;50.760;0.282;2022-12-29T15:51:58;4.27;;;1.77;;
12585;SDS011;6358;50.760;0.282;2022-12-29T15:54:25;5.13;;;2.17;;
12585;SDS011;6358;50.760;0.282;2022-12-29T15:56:52;5.90;;;1.90;;
12585;SDS011;6358;50.760;0.282;2022-12-29T15:59:31;4.50;;;1.97;;
12585;SDS011;6358;50.760;0.282;2022-12-29T16:01:58;4.23;;;1.97;;
12585;SDS011;6358;50.760;0.282;2022-12-29T16:04:25;4.77;;;2.00;;
12585;SDS011;6358;50.760;0.282;2022-12-29T16:06:54;6.20;;;2.17;;
12585;SDS011;6358;50.760;0.282;2022-12-29T16:09:33;3.23;;;1.60;;
12585;SDS011;6358;50.760;0.282;2022-12-29T16:12:07;4.67;;;1.80;;
12585;SDS011;6358;50.760;0.282;2022-12-29T16:14:41;5.20;;;2.17;;
12585;SDS011;6358;50.760;0.282;2022-12-29T16:17:11;5.53;;;1.80;;
12585;SDS011;6358;50.760;0.282;2022-12-29T16:19:41;3.27;;;1.60;;
12585;SDS011;6358;50.760;0.282;2022-12-29T16:22:09;4.63;;;1.90;;
12585;SDS011;6358;50.760;0.282;2022-12-29T16:24:38;5.93;;;2.33;;
12585;SDS011;6358;50.760;0.282;2022-12-29T16:27:21;3.90;;;1.70;;
12585;SDS011;6358;50.760;0.282;2022-12-29T16:29:51;3.70;;;1.60;;
12585;SDS011;6358;50.760;0.282;2022-12-29T16:32:27;3.03;;;1.63;;
12585;SDS011;6358;50.760;0.282;2022-12-29T16:35:10;4.90;;;1.77;;
12585;SDS011;6358;50.760;0.282;2022-12-29T16:37:37;3.93;;;1.73;;
12585;SDS011;6358;50.760;0.282;2022-12-29T16:42:53;3.87;;;1.50;;
12585;SDS011;6358;50.760;0.282;2022-12-29T16:50:17;3.67;;;1.70;;
12585;SDS011;6358;50.760;0.282;2022-12-29T16:52:48;3.67;;;1.80;;
12585;SDS011;6358;50.760;0.282;2022-12-29T16:55:15;4.83;;;1.97;;
12585;SDS011;6358;50.760;0.282;2022-12-29T16:57:42;2.97;;;1.60;;
12585;SDS011;6358;50.760;0.282;2022-12-29T17:02:44;3.10;;;1.40;;
12585;SDS011;6358;50.760;0.282;2022-12-29T17:05:13;3.23;;;1.40;;
12585;SDS011;6358;50.760;0.282;2022-12-29T17:07:39;3.87;;;1.80;;
12585;SDS011;6358;50.760;0.282;2022-12-29T17:10:05;3.63;;;1.87;;
12585;SDS011;6358;50.760;0.282;2022-12-29T17:12:32;2.70;;;1.53;;
12585;SDS011;6358;50.760;0.282;2022-12-29T17:15:00;3.43;;;1.60;;
12585;SDS011;6358;50.760;0.282;2022-12-29T17:17:34;2.40;;;1.50;;
12585;SDS011;6358;50.760;0.282;2022-12-29T17:20:02;3.33;;;1.57;;
12585;SDS011;6358;50.760;0.282;2022-12-29T17:22:29;3.23;;;1.63;;
12585;SDS011;6358;50.760;0.282;2022-12-29T17:24:56;3.60;;;1.60;;
12585;SDS011;6358;50.760;0.282;2022-12-29T17:27:24;3.63;;;1.63;;
12585;SDS011;6358;50.760;0.282;2022-12-29T17:29:51;3.87;;;1.53;;
12585;SDS011;6358;50.760;0.282;2022-12-29T17:32:18;3.43;;;1.80;;
12585;SDS011;6358;50.760;0.282;2022-12-29T17:34:44;3.43;;;1.63;;
12585;SDS011;6358;50.760;0.282;2022-12-29T17:39:48;2.73;;;1.50;;
12585;SDS011;6358;50.760;0.282;2022-12-29T17:42:14;1.70;;;1.30;;